Time;durP1;ratioP1;P1;durP2;ratioP2;P2;SDS_P1;SDS_P2;PMS_P1;PMS_P2;Temp;Humidity;BMP_temperature;BMP_pressure;BME280_temperature;BME280_humidity;BME280_pressure;Samples;Min_cycle;Max_cycle;Signal;HPM_P1;HPM_P2
2021/10/11 00:02:01;;;;;;;3.97;3.58;;;;;;;;;;5018603;28;20208;-42
2021/10/11 00:04:27;;;;;;;4.70;3.80;;;;;;;;;;5030341;28;20198;-42
2021/10/11 00:06:53;;;;;;;4.28;3.60;;;;;;;;;;5035777;28;20190;-42
2021/10/11 00:09:19;;;;;;;3.95;3.50;;;;;;;;;;5031183;28;20177;-42
2021/10/11 00:11:45;;;;;;;4.25;3.83;;;;;;;;;;5016876;28;20183;-42
2021/10/11 00:14:11;;;;;;;4.38;3.75;;;;;;;;;;5024489;28;20247;-42
2021/10/11 00:16:37;;;;;;;3.88;3.47;;;;;;;;;;5025003;28;20180;-42
2021/10/11 00:19:04;;;;;;;4.20;3.80;;;;;;;;;;5019407;28;20179;-42
2021/10/11 00:21:31;;;;;;;4.40;4.00;;;;;;;;;;5035685;28;20215;-42
2021/10/11 00:23:57;;;;;;;5.05;4.38;;;;;;;;;;5016422;28;20196;-42
2021/10/11 00:26:23;;;;;;;4.30;3.90;;;;;;;;;;5016503;28;20446;-42
2021/10/11 00:28:49;;;;;;;3.63;3.33;;;;;;;;;;5017767;28;20181;-42
2021/10/11 00:31:15;;;;;;;4.03;3.60;;;;;;;;;;5032490;28;20193;-42
2021/10/11 00:33:41;;;;;;;4.13;3.70;;;;;;;;;;5032982;28;20212;-42
2021/10/11 00:36:07;;;;;;;5.28;4.18;;;;;;;;;;5033335;28;20180;-42
2021/10/11 00:38:33;;;;;;;3.83;3.40;;;;;;;;;;5017843;28;20530;-42
2021/10/11 00:41:00;;;;;;;4.07;3.60;;;;;;;;;;5017697;28;20208;-42
2021/10/11 00:43:26;;;;;;;3.95;3.65;;;;;;;;;;5032721;28;20213;-42
2021/10/11 00:45:52;;;;;;;4.55;3.80;;;;;;;;;;5035347;28;20211;-42
2021/10/11 00:48:18;;;;;;;3.70;3.40;;;;;;;;;;5016387;28;20216;-42
2021/10/11 00:50:44;;;;;;;4.45;4.05;;;;;;;;;;5030580;28;20180;-42
2021/10/11 00:53:11;;;;;;;4.05;3.65;;;;;;;;;;5035174;28;20172;-42
2021/10/11 00:55:37;;;;;;;3.80;3.47;;;;;;;;;;5019346;28;20177;-42
2021/10/11 00:58:03;;;;;;;4.10;3.50;;;;;;;;;;5016326;28;20173;-42
2021/10/11 01:00:29;;;;;;;3.72;3.22;;;;;;;;;;5030215;28;20401;-42
2021/10/11 01:02:55;;;;;;;3.97;3.58;;;;;;;;;;5033501;28;20548;-42
2021/10/11 01:05:21;;;;;;;4.25;3.42;;;;;;;;;;5035086;28;20629;-42
2021/10/11 01:07:48;;;;;;;3.90;3.50;;;;;;;;;;5035311;28;20175;-42
2021/10/11 01:10:14;;;;;;;3.97;3.58;;;;;;;;;;5027287;28;20180;-42
2021/10/11 01:12:40;;;;;;;3.63;3.33;;;;;;;;;;5028578;28;20345;-42
2021/10/11 01:15:07;;;;;;;3.72;3.40;;;;;;;;;;5015433;28;20285;-42
2021/10/11 01:17:33;;;;;;;3.67;3.30;;;;;;;;;;5015788;28;20180;-42
2021/10/11 01:19:59;;;;;;;3.88;3.35;;;;;;;;;;5020907;28;20441;-42
2021/10/11 01:22:39;;;;;;;3.72;3.30;;;;;;;;;;5028681;28;20261;-42
2021/10/11 01:25:06;;;;;;;5.00;3.60;;;;;;;;;;5015762;28;20180;-42
2021/10/11 01:27:32;;;;;;;3.83;3.38;;;;;;;;;;5026165;28;20570;-42
2021/10/11 01:29:58;;;;;;;4.30;3.78;;;;;;;;;;5025195;28;20188;-42
2021/10/11 01:32:25;;;;;;;4.10;3.60;;;;;;;;;;5022257;28;20188;-42
2021/10/11 01:34:52;;;;;;;3.50;3.20;;;;;;;;;;5028994;28;20216;-42
2021/10/11 01:37:18;;;;;;;4.28;3.53;;;;;;;;;;5016633;28;20187;-42
2021/10/11 01:39:44;;;;;;;4.07;3.53;;;;;;;;;;5020805;28;20180;-42
2021/10/11 01:42:10;;;;;;;3.80;3.50;;;;;;;;;;5033739;28;20218;-42
2021/10/11 01:44:36;;;;;;;4.10;3.70;;;;;;;;;;5033645;28;20186;-42
2021/10/11 01:47:02;;;;;;;3.70;3.03;;;;;;;;;;5024259;28;20199;-42
2021/10/11 01:49:28;;;;;;;4.82;3.60;;;;;;;;;;5015475;28;20284;-42
2021/10/11 01:51:54;;;;;;;4.13;3.50;;;;;;;;;;5034614;28;20262;-42
2021/10/11 01:54:21;;;;;;;3.85;3.38;;;;;;;;;;5017970;28;20560;-42
2021/10/11 01:56:46;;;;;;;3.92;3.53;;;;;;;;;;5031417;28;20218;-42
2021/10/11 01:59:12;;;;;;;3.35;3.05;;;;;;;;;;5017156;28;20181;-42
2021/10/11 02:01:38;;;;;;;3.72;3.33;;;;;;;;;;5026787;28;20239;-42
2021/10/11 02:04:04;;;;;;;3.47;3.17;;;;;;;;;;5014810;28;20180;-42
2021/10/11 02:06:30;;;;;;;4.25;3.42;;;;;;;;;;5014889;28;20190;-42
2021/10/11 02:08:56;;;;;;;3.53;3.22;;;;;;;;;;5017538;28;20184;-42
2021/10/11 02:11:23;;;;;;;3.90;3.60;;;;;;;;;;5017479;28;20187;-42
2021/10/11 02:13:49;;;;;;;3.50;3.20;;;;;;;;;;5016542;28;20200;-42
2021/10/11 02:16:15;;;;;;;3.85;3.05;;;;;;;;;;5014756;28;20252;-42
2021/10/11 02:18:41;;;;;;;4.10;3.55;;;;;;;;;;5022952;28;20539;-42
2021/10/11 02:21:07;;;;;;;3.90;3.28;;;;;;;;;;5019403;28;20180;-42
2021/10/11 02:23:33;;;;;;;3.92;3.53;;;;;;;;;;5024485;28;20195;-42
2021/10/11 02:25:59;;;;;;;3.30;3.00;;;;;;;;;;5032162;28;20247;-43
2021/10/11 02:28:25;;;;;;;3.20;2.92;;;;;;;;;;5019595;28;20315;-42
2021/10/11 02:30:51;;;;;;;3.55;3.03;;;;;;;;;;5016487;28;20192;-42
2021/10/11 02:33:17;;;;;;;3.53;3.22;;;;;;;;;;5026975;28;20183;-42
2021/10/11 02:35:43;;;;;;;3.78;3.47;;;;;;;;;;5034067;28;20539;-42
2021/10/11 02:38:09;;;;;;;4.43;3.33;;;;;;;;;;5020733;28;20172;-42
2021/10/11 02:40:36;;;;;;;3.85;3.55;;;;;;;;;;5024343;28;20187;-42
2021/10/11 02:43:02;;;;;;;3.85;3.13;;;;;;;;;;5028068;28;20181;-42
2021/10/11 02:45:28;;;;;;;3.60;3.22;;;;;;;;;;5014350;28;20452;-42
2021/10/11 02:47:54;;;;;;;3.20;2.90;;;;;;;;;;5026559;28;20226;-42
2021/10/11 02:50:20;;;;;;;3.53;3.22;;;;;;;;;;5031777;28;20190;-42
2021/10/11 02:52:47;;;;;;;3.47;2.95;;;;;;;;;;5027551;28;20250;-42
2021/10/11 02:55:13;;;;;;;3.70;3.40;;;;;;;;;;5033923;28;20211;-42
2021/10/11 02:57:39;;;;;;;4.03;3.45;;;;;;;;;;5022095;28;20184;-42
2021/10/11 03:00:06;;;;;;;3.78;3.38;;;;;;;;;;5019949;28;20196;-42
2021/10/11 03:02:32;;;;;;;3.50;3.03;;;;;;;;;;5032304;28;20199;-42
2021/10/11 03:04:58;;;;;;;3.75;3.33;;;;;;;;;;5013801;28;20180;-42
2021/10/11 03:07:24;;;;;;;3.53;3.20;;;;;;;;;;5025921;28;20206;-42
2021/10/11 03:09:50;;;;;;;3.33;2.88;;;;;;;;;;5029462;28;20204;-42
2021/10/11 03:12:16;;;;;;;4.35;3.20;;;;;;;;;;5014363;28;20208;-42
2021/10/11 03:14:42;;;;;;;3.75;2.95;;;;;;;;;;5014366;28;20232;-42
2021/10/11 03:17:08;;;;;;;3.10;2.80;;;;;;;;;;5023596;28;20442;-42
2021/10/11 03:19:34;;;;;;;3.33;3.03;;;;;;;;;;5024798;28;20172;-42
2021/10/11 03:22:01;;;;;;;3.95;3.38;;;;;;;;;;5028082;28;20183;-42
2021/10/11 03:24:27;;;;;;;3.33;3.03;;;;;;;;;;5032509;28;20173;-42
2021/10/11 03:26:53;;;;;;;3.55;3.13;;;;;;;;;;5017823;28;20184;-42
2021/10/11 03:29:19;;;;;;;3.50;3.20;;;;;;;;;;5017747;28;20452;-42
2021/10/11 03:31:45;;;;;;;3.22;2.97;;;;;;;;;;5021979;28;20606;-42
2021/10/11 03:34:12;;;;;;;3.55;3.00;;;;;;;;;;5028899;28;20207;-42
2021/10/11 03:36:41;;;;;;;3.30;3.00;;;;;;;;;;5034119;28;20176;-42
2021/10/11 03:39:08;;;;;;;3.17;2.80;;;;;;;;;;5037123;28;20474;-42
2021/10/11 03:41:34;;;;;;;3.10;2.80;;;;;;;;;;5035921;28;20180;-42
2021/10/11 03:44:03;;;;;;;3.60;3.17;;;;;;;;;;5025817;28;20615;-42
2021/10/11 03:46:29;;;;;;;3.75;3.10;;;;;;;;;;5023950;28;20559;-42
2021/10/11 03:48:55;;;;;;;4.50;3.08;;;;;;;;;;5037281;28;20179;-42
2021/10/11 03:51:21;;;;;;;3.10;2.80;;;;;;;;;;5020557;28;20189;-42
2021/10/11 03:53:51;;;;;;;3.10;2.80;;;;;;;;;;5026111;28;20196;-42
2021/10/11 03:56:17;;;;;;;4.05;3.00;;;;;;;;;;5032530;28;20190;-42
2021/10/11 03:58:43;;;;;;;3.63;2.92;;;;;;;;;;5036883;28;20429;-42
2021/10/11 04:01:09;;;;;;;3.67;2.80;;;;;;;;;;5023930;28;20258;-43
2021/10/11 04:03:35;;;;;;;4.43;3.22;;;;;;;;;;5028689;28;20532;-42
2021/10/11 04:06:01;;;;;;;4.35;3.22;;;;;;;;;;5016904;28;20177;-42
2021/10/11 04:09:01;;;;;;;6.18;3.58;;;;;;;;;;5020409;28;20445;-42
2021/10/11 04:13:45;;;;;;;3.75;2.90;;;;;;;;;;5035498;28;20215;-42
2021/10/11 04:16:12;;;;;;;3.95;3.30;;;;;;;;;;5034018;28;20263;-42
2021/10/11 04:18:38;;;;;;;4.20;3.10;;;;;;;;;;5036420;28;20176;-42
2021/10/11 04:21:04;;;;;;;5.97;3.20;;;;;;;;;;5024875;28;20452;-42
2021/10/11 04:23:30;;;;;;;18.92;5.35;;;;;;;;;;5017411;28;20180;-42
2021/10/11 04:25:56;;;;;;;11.48;4.93;;;;;;;;;;5016153;28;20195;-42
2021/10/11 04:28:23;;;;;;;14.05;5.10;;;;;;;;;;5016021;28;20172;-42
2021/10/11 04:30:49;;;;;;;12.88;5.35;;;;;;;;;;5024323;28;20706;-42
2021/10/11 04:33:15;;;;;;;14.88;5.28;;;;;;;;;;5029045;28;20176;-42
2021/10/11 04:35:41;;;;;;;10.02;4.72;;;;;;;;;;5019210;28;20279;-42
2021/10/11 04:38:07;;;;;;;10.45;4.00;;;;;;;;;;5018924;28;20165;-42
2021/10/11 04:40:34;;;;;;;8.27;4.65;;;;;;;;;;5032259;28;20179;-42
2021/10/11 04:43:00;;;;;;;9.05;4.43;;;;;;;;;;5036018;28;20168;-42
2021/10/11 04:45:29;;;;;;;8.00;4.20;;;;;;;;;;5033848;28;20555;-42
2021/10/11 04:47:56;;;;;;;11.55;4.47;;;;;;;;;;5036352;28;20172;-42
2021/10/11 04:50:22;;;;;;;9.25;4.28;;;;;;;;;;5028914;28;20550;-42
2021/10/11 04:52:48;;;;;;;8.65;4.20;;;;;;;;;;5032538;28;20183;-42
2021/10/11 04:55:14;;;;;;;9.60;4.88;;;;;;;;;;5021533;28;20291;-42
2021/10/11 04:57:40;;;;;;;6.95;4.30;;;;;;;;;;5025691;28;20181;-42
2021/10/11 05:00:06;;;;;;;9.10;4.53;;;;;;;;;;5031964;28;20188;-42
2021/10/11 05:02:32;;;;;;;8.43;3.92;;;;;;;;;;5025857;28;20203;-42
2021/10/11 05:04:58;;;;;;;8.60;4.10;;;;;;;;;;5034467;28;20265;-42
2021/10/11 05:07:24;;;;;;;6.22;4.35;;;;;;;;;;5034029;28;20461;-42
2021/10/11 05:09:50;;;;;;;7.68;4.53;;;;;;;;;;5024627;28;20184;-42
2021/10/11 05:12:16;;;;;;;6.20;3.90;;;;;;;;;;5016134;28;20169;-42
2021/10/11 05:14:42;;;;;;;7.22;3.97;;;;;;;;;;5015587;28;20208;-42
2021/10/11 05:17:08;;;;;;;9.13;4.15;;;;;;;;;;5027245;28;20184;-42
2021/10/11 05:19:34;;;;;;;6.38;4.25;;;;;;;;;;5035171;28;20238;-42
2021/10/11 05:22:00;;;;;;;6.18;4.15;;;;;;;;;;5017201;28;20208;-42
2021/10/11 05:24:26;;;;;;;7.53;4.20;;;;;;;;;;5034417;28;20632;-42
2021/10/11 05:26:54;;;;;;;10.20;4.47;;;;;;;;;;5035099;28;20764;-41
2021/10/11 05:29:20;;;;;;;7.53;3.95;;;;;;;;;;5015839;28;20195;-42
2021/10/11 05:31:47;;;;;;;10.23;4.28;;;;;;;;;;5016470;28;20185;-42
2021/10/11 05:34:13;;;;;;;6.35;4.28;;;;;;;;;;5028068;28;20210;-42
2021/10/11 05:36:39;;;;;;;6.10;4.00;;;;;;;;;;5031140;28;20188;-42
2021/10/11 05:39:05;;;;;;;5.38;3.60;;;;;;;;;;5035093;28;20176;-42
2021/10/11 05:41:31;;;;;;;6.65;3.75;;;;;;;;;;5021447;28;20185;-42
2021/10/11 05:43:57;;;;;;;7.03;3.88;;;;;;;;;;5015009;28;20187;-42
2021/10/11 05:46:23;;;;;;;7.43;3.97;;;;;;;;;;5019789;28;20261;-42
2021/10/11 05:48:49;;;;;;;6.35;3.65;;;;;;;;;;5015164;28;20706;-42
2021/10/11 05:51:15;;;;;;;5.85;3.88;;;;;;;;;;5021443;28;20489;-42
2021/10/11 05:53:41;;;;;;;5.80;3.70;;;;;;;;;;5032895;28;20298;-42
2021/10/11 05:56:07;;;;;;;5.13;3.50;;;;;;;;;;5031370;28;20235;-42
2021/10/11 05:58:33;;;;;;;4.93;3.72;;;;;;;;;;5015246;28;20180;-42
2021/10/11 06:00:59;;;;;;;6.45;4.10;;;;;;;;;;5025515;28;20191;-42
2021/10/11 06:03:26;;;;;;;4.65;3.45;;;;;;;;;;5032461;28;20182;-42
2021/10/11 06:05:52;;;;;;;4.20;3.30;;;;;;;;;;5032650;28;20581;-42
2021/10/11 06:08:19;;;;;;;6.20;3.45;;;;;;;;;;5034576;28;20325;-42
2021/10/11 06:10:45;;;;;;;6.18;3.55;;;;;;;;;;5027879;28;20172;-42
2021/10/11 06:13:11;;;;;;;5.82;3.63;;;;;;;;;;5026413;28;20306;-42
2021/10/11 06:15:37;;;;;;;5.50;3.35;;;;;;;;;;5033953;28;20210;-42
2021/10/11 06:18:03;;;;;;;5.40;3.80;;;;;;;;;;5033956;28;20187;-42
2021/10/11 06:20:29;;;;;;;5.25;3.72;;;;;;;;;;5030911;28;20185;-42
2021/10/11 06:22:55;;;;;;;4.72;3.35;;;;;;;;;;5014480;28;20567;-42
2021/10/11 06:25:21;;;;;;;4.93;3.67;;;;;;;;;;5021533;28;20171;-41
2021/10/11 06:27:47;;;;;;;5.05;3.83;;;;;;;;;;5017462;28;20239;-42
2021/10/11 06:30:13;;;;;;;4.13;3.50;;;;;;;;;;5028753;28;20619;-42
2021/10/11 06:32:39;;;;;;;4.38;3.40;;;;;;;;;;5029381;28;20206;-42
2021/10/11 06:35:05;;;;;;;4.28;3.55;;;;;;;;;;5032959;28;20219;-42
2021/10/11 06:37:32;;;;;;;4.80;3.35;;;;;;;;;;5018907;28;20196;-42
2021/10/11 06:39:57;;;;;;;5.00;3.38;;;;;;;;;;5026017;28;20174;-42
2021/10/11 06:42:23;;;;;;;5.55;3.30;;;;;;;;;;5034032;28;20179;-42
2021/10/11 06:44:50;;;;;;;4.05;3.17;;;;;;;;;;5033805;28;20180;-42
2021/10/11 06:47:16;;;;;;;4.63;3.10;;;;;;;;;;5027844;28;20203;-42
2021/10/11 06:49:44;;;;;;;5.35;3.20;;;;;;;;;;5025571;28;20175;-42
2021/10/11 06:52:10;;;;;;;3.55;3.20;;;;;;;;;;5034157;28;20180;-41
2021/10/11 06:54:36;;;;;;;4.88;4.05;;;;;;;;;;5037508;28;20214;-42
2021/10/11 06:57:02;;;;;;;3.47;3.17;;;;;;;;;;5037702;28;20176;-42
2021/10/11 06:59:28;;;;;;;4.57;3.97;;;;;;;;;;5034406;28;20495;-42
2021/10/11 07:01:54;;;;;;;4.15;3.00;;;;;;;;;;5032862;28;20197;-42
2021/10/11 07:04:21;;;;;;;4.55;3.20;;;;;;;;;;5017862;28;20600;-42
2021/10/11 07:06:48;;;;;;;4.82;3.67;;;;;;;;;;5029242;28;20175;-42
2021/10/11 07:09:14;;;;;;;4.20;3.42;;;;;;;;;;5031083;28;20187;-43
2021/10/11 07:11:40;;;;;;;5.25;3.42;;;;;;;;;;5020852;28;20185;-42
2021/10/11 07:14:06;;;;;;;5.28;3.33;;;;;;;;;;5037541;28;20500;-42
2021/10/11 07:16:32;;;;;;;3.95;3.53;;;;;;;;;;5029181;28;20185;-42
2021/10/11 07:18:58;;;;;;;4.22;3.58;;;;;;;;;;5017243;28;20172;-42
2021/10/11 07:21:24;;;;;;;3.45;3.03;;;;;;;;;;5022898;28;20203;-42
2021/10/11 07:23:50;;;;;;;3.83;3.17;;;;;;;;;;5035881;28;20583;-42
2021/10/11 07:26:16;;;;;;;3.40;3.05;;;;;;;;;;5017013;28;20176;-42
2021/10/11 07:28:42;;;;;;;4.20;3.45;;;;;;;;;;5017947;28;20183;-42
2021/10/11 07:31:08;;;;;;;5.50;3.47;;;;;;;;;;5017646;28;20220;-42
2021/10/11 07:33:34;;;;;;;3.97;3.50;;;;;;;;;;5033121;28;20578;-42
2021/10/11 07:36:00;;;;;;;3.55;3.25;;;;;;;;;;5036439;28;20281;-41
2021/10/11 07:38:26;;;;;;;4.90;3.95;;;;;;;;;;5037639;28;20179;-41
2021/10/11 07:40:53;;;;;;;3.90;3.20;;;;;;;;;;5037425;28;20164;-41
2021/10/11 07:43:19;;;;;;;4.32;3.70;;;;;;;;;;5036962;28;20168;-41
2021/10/11 07:45:46;;;;;;;3.95;3.38;;;;;;;;;;5037152;28;20172;-41
2021/10/11 07:48:12;;;;;;;4.22;3.53;;;;;;;;;;5034541;28;20291;-41
2021/10/11 07:50:38;;;;;;;4.57;3.30;;;;;;;;;;5033144;28;20176;-41
2021/10/11 07:53:04;;;;;;;4.38;3.25;;;;;;;;;;5028358;28;20176;-41
2021/10/11 07:55:30;;;;;;;4.65;3.55;;;;;;;;;;5020189;28;20282;-42
2021/10/11 07:57:56;;;;;;;3.72;3.33;;;;;;;;;;5026015;28;20544;-42
2021/10/11 08:00:22;;;;;;;4.18;3.22;;;;;;;;;;5035859;28;20270;-42
2021/10/11 08:02:48;;;;;;;3.47;3.17;;;;;;;;;;5034924;28;20258;-42
2021/10/11 08:05:14;;;;;;;3.97;3.10;;;;;;;;;;5030535;28;20181;-42
2021/10/11 08:07:44;;;;;;;4.65;3.10;;;;;;;;;;5016855;28;20260;-42
2021/10/11 08:10:10;;;;;;;4.60;3.67;;;;;;;;;;5033629;28;20563;-42
2021/10/11 08:12:37;;;;;;;3.40;3.10;;;;;;;;;;5036421;28;20206;-42
2021/10/11 08:15:04;;;;;;;3.90;3.20;;;;;;;;;;5036017;28;20823;-41
2021/10/11 08:17:30;;;;;;;4.03;3.22;;;;;;;;;;5025325;28;20184;-42
2021/10/11 08:19:56;;;;;;;2.88;2.67;;;;;;;;;;5022505;28;20557;-41
2021/10/11 08:22:22;;;;;;;3.53;3.17;;;;;;;;;;5023212;28;20183;-41
2021/10/11 08:24:49;;;;;;;3.60;3.15;;;;;;;;;;5035972;28;20188;-42
2021/10/11 08:27:18;;;;;;;3.38;2.95;;;;;;;;;;5034023;28;20195;-41
2021/10/11 08:29:51;;;;;;;3.42;3.13;;;;;;;;;;5035943;28;20180;-41
2021/10/11 08:32:17;;;;;;;3.67;3.17;;;;;;;;;;5035947;28;20295;-41
2021/10/11 08:34:43;;;;;;;4.43;3.30;;;;;;;;;;5034937;28;20203;-41
2021/10/11 08:37:09;;;;;;;4.28;3.60;;;;;;;;;;5035980;28;20184;-41
2021/10/11 08:39:36;;;;;;;3.28;2.97;;;;;;;;;;5036221;28;20239;-41
2021/10/11 08:42:04;;;;;;;3.42;2.72;;;;;;;;;;5026662;28;20459;-42
2021/10/11 08:44:30;;;;;;;3.85;3.38;;;;;;;;;;5025146;28;20188;-41
2021/10/11 08:46:56;;;;;;;3.50;3.20;;;;;;;;;;5029001;28;20241;-42
2021/10/11 08:49:22;;;;;;;3.38;3.08;;;;;;;;;;5035284;28;20187;-42
2021/10/11 08:51:48;;;;;;;5.03;3.60;;;;;;;;;;5035274;28;20184;-41
2021/10/11 08:54:14;;;;;;;4.03;3.40;;;;;;;;;;5029638;28;20453;-41
2021/10/11 08:56:40;;;;;;;5.72;3.47;;;;;;;;;;5035793;28;20186;-41
2021/10/11 08:59:06;;;;;;;4.78;3.25;;;;;;;;;;5024426;28;20183;-42
2021/10/11 09:01:32;;;;;;;4.25;3.40;;;;;;;;;;5034789;28;20196;-42
2021/10/11 09:04:02;;;;;;;3.55;3.25;;;;;;;;;;5034927;28;20175;-43
2021/10/11 09:06:28;;;;;;;3.42;3.13;;;;;;;;;;5022207;28;20266;-42
2021/10/11 09:08:54;;;;;;;3.78;3.03;;;;;;;;;;5035695;28;20228;-42
2021/10/11 09:11:20;;;;;;;4.38;3.35;;;;;;;;;;5035387;28;20510;-42
2021/10/11 09:13:53;;;;;;;3.80;3.00;;;;;;;;;;5034617;28;20199;-42
2021/10/11 09:19:19;;;;;;;3.33;3.03;;;;;;;;;;5033031;28;20292;-41
2021/10/11 09:21:45;;;;;;;3.35;3.05;;;;;;;;;;5015359;28;20270;-41
2021/10/11 09:24:12;;;;;;;3.70;3.33;;;;;;;;;;5033601;28;20192;-41
2021/10/11 09:27:01;;;;;;;3.42;2.97;;;;;;;;;;5028042;28;20553;-42
2021/10/11 09:29:31;;;;;;;3.38;3.08;;;;;;;;;;5015687;28;20209;-42
2021/10/11 09:32:01;;;;;;;4.65;3.40;;;;;;;;;;5017554;28;20187;-41
2021/10/11 09:34:27;;;;;;;3.30;3.00;;;;;;;;;;5030299;28;20204;-41
2021/10/11 09:36:57;;;;;;;3.58;3.25;;;;;;;;;;5015469;28;20180;-41
2021/10/11 09:39:24;;;;;;;3.83;3.17;;;;;;;;;;5031073;28;20202;-41
2021/10/11 09:41:51;;;;;;;3.83;2.95;;;;;;;;;;5035203;28;20310;-41
2021/10/11 09:44:18;;;;;;;3.92;3.40;;;;;;;;;;5025306;28;20176;-42
2021/10/11 09:46:48;;;;;;;3.30;3.00;;;;;;;;;;5015190;28;20172;-42
2021/10/11 09:49:14;;;;;;;4.00;3.60;;;;;;;;;;5016431;28;20308;-41
2021/10/11 09:51:41;;;;;;;3.55;3.25;;;;;;;;;;5020164;28;20234;-41
2021/10/11 09:54:07;;;;;;;3.78;3.20;;;;;;;;;;5019145;28;20195;-41
2021/10/11 09:56:34;;;;;;;4.55;3.67;;;;;;;;;;5033611;28;20467;-41
2021/10/11 09:59:01;;;;;;;3.75;3.22;;;;;;;;;;5035056;28;20215;-41
2021/10/11 10:01:28;;;;;;;4.25;3.00;;;;;;;;;;5034234;28;20195;-42
2021/10/11 10:03:56;;;;;;;3.50;3.20;;;;;;;;;;5034478;28;20175;-42
2021/10/11 10:06:24;;;;;;;4.20;3.40;;;;;;;;;;5031473;28;20195;-41
2021/10/11 10:08:51;;;;;;;3.30;2.95;;;;;;;;;;5015273;28;20243;-41
2021/10/11 10:11:19;;;;;;;4.03;3.42;;;;;;;;;;5015132;28;20255;-41
2021/10/11 10:13:49;;;;;;;3.60;3.30;;;;;;;;;;5014189;28;20267;-41
2021/10/11 10:16:17;;;;;;;3.60;3.30;;;;;;;;;;5015265;28;20522;-41
2021/10/11 10:18:44;;;;;;;3.67;3.28;;;;;;;;;;5016494;28;20173;-41
2021/10/11 10:21:10;;;;;;;3.30;2.97;;;;;;;;;;5034479;28;20203;-42
2021/10/11 10:23:38;;;;;;;3.65;3.30;;;;;;;;;;5019064;28;20184;-42
2021/10/11 10:26:05;;;;;;;4.15;3.17;;;;;;;;;;5014243;28;20225;-42
2021/10/11 10:28:44;;;;;;;3.72;3.10;;;;;;;;;;5014697;28;20608;-41
2021/10/11 10:31:10;;;;;;;3.78;3.35;;;;;;;;;;5014465;28;20207;-41
2021/10/11 10:33:38;;;;;;;3.70;3.30;;;;;;;;;;5029606;28;20180;-42
2021/10/11 10:36:05;;;;;;;3.53;3.20;;;;;;;;;;5013953;28;20215;-41
2021/10/11 10:38:31;;;;;;;3.28;2.90;;;;;;;;;;5018664;28;20184;-42
2021/10/11 10:40:58;;;;;;;3.08;2.78;;;;;;;;;;5034157;28;20176;-42
2021/10/11 10:43:24;;;;;;;3.17;2.80;;;;;;;;;;5032379;28;20156;-41
2021/10/11 10:45:50;;;;;;;3.15;2.85;;;;;;;;;;5033673;28;20164;-41
2021/10/11 10:48:20;;;;;;;4.38;2.83;;;;;;;;;;5019925;28;20255;-41
2021/10/11 10:50:46;;;;;;;3.78;3.10;;;;;;;;;;5014798;28;20548;-41
2021/10/11 10:53:13;;;;;;;3.00;2.70;;;;;;;;;;5032293;28;20181;-42
2021/10/11 10:55:40;;;;;;;3.65;3.20;;;;;;;;;;5024632;28;20641;-41
2021/10/11 10:58:08;;;;;;;3.63;3.30;;;;;;;;;;5015203;28;20541;-41
2021/10/11 11:00:35;;;;;;;3.22;2.88;;;;;;;;;;5015904;28;20556;-41
2021/10/11 11:03:01;;;;;;;3.45;2.88;;;;;;;;;;5014036;28;20562;-41
2021/10/11 11:05:29;;;;;;;3.63;3.03;;;;;;;;;;5013543;28;20183;-41
2021/10/11 11:07:56;;;;;;;4.22;3.50;;;;;;;;;;5014571;28;20276;-41
2021/10/11 11:10:30;;;;;;;3.22;2.90;;;;;;;;;;5014233;28;20608;-41
2021/10/11 11:13:01;;;;;;;3.20;2.90;;;;;;;;;;5015085;28;20233;-42
2021/10/11 11:15:32;;;;;;;3.83;3.33;;;;;;;;;;5014030;28;20279;-41
2021/10/11 11:18:04;;;;;;;3.30;2.72;;;;;;;;;;5014316;28;20552;-42
2021/10/11 11:20:33;;;;;;;3.13;2.83;;;;;;;;;;5013456;28;20168;-42
2021/10/11 11:23:06;;;;;;;3.75;3.33;;;;;;;;;;5013320;28;20216;-42
2021/10/11 11:25:34;;;;;;;3.47;2.58;;;;;;;;;;5013543;28;20215;-42
2021/10/11 11:28:01;;;;;;;3.88;3.10;;;;;;;;;;5028606;28;20799;-41
2021/10/11 11:30:27;;;;;;;2.78;2.58;;;;;;;;;;5025481;28;20189;-41
2021/10/11 11:32:58;;;;;;;3.58;3.15;;;;;;;;;;5023744;28;20206;-41
2021/10/11 11:35:25;;;;;;;3.47;3.08;;;;;;;;;;5029908;28;20264;-42
2021/10/11 11:37:53;;;;;;;3.35;3.05;;;;;;;;;;5033596;28;20180;-42
2021/10/11 11:40:19;;;;;;;2.90;2.67;;;;;;;;;;5036931;28;20564;-42
2021/10/11 11:42:46;;;;;;;2.90;2.70;;;;;;;;;;5037146;28;20214;-42
2021/10/11 11:45:13;;;;;;;3.47;3.17;;;;;;;;;;5031673;28;20200;-42
2021/10/11 11:47:39;;;;;;;3.28;2.83;;;;;;;;;;5017215;28;20268;-43
2021/10/11 11:50:15;;;;;;;3.10;2.90;;;;;;;;;;5017527;28;20169;-42
2021/10/11 11:52:41;;;;;;;3.33;3.03;;;;;;;;;;5017536;28;20254;-42
2021/10/11 11:55:09;;;;;;;4.10;2.80;;;;;;;;;;5029281;28;20239;-42
2021/10/11 11:57:42;;;;;;;3.22;2.92;;;;;;;;;;5037292;28;20164;-42
2021/10/11 12:00:09;;;;;;;3.30;3.00;;;;;;;;;;5036751;28;20219;-42
2021/10/11 12:02:38;;;;;;;4.40;3.17;;;;;;;;;;5035445;28;20176;-42
2021/10/11 12:05:05;;;;;;;3.15;2.90;;;;;;;;;;5036374;28;20443;-42
2021/10/11 12:07:31;;;;;;;3.10;2.90;;;;;;;;;;5036203;28;20562;-42
2021/10/11 12:09:57;;;;;;;2.90;2.70;;;;;;;;;;5037032;28;20172;-42
2021/10/11 12:12:31;;;;;;;3.50;3.20;;;;;;;;;;5036970;28;20172;-42
2021/10/11 12:14:57;;;;;;;3.47;3.17;;;;;;;;;;5036442;28;20203;-42
2021/10/11 12:17:30;;;;;;;3.25;2.95;;;;;;;;;;5036801;28;20550;-42
2021/10/11 12:19:58;;;;;;;3.78;3.00;;;;;;;;;;5035236;28;20230;-42
2021/10/11 12:22:28;;;;;;;3.30;3.00;;;;;;;;;;5036772;28;20194;-42
2021/10/11 12:25:05;;;;;;;3.10;2.90;;;;;;;;;;5030226;28;20230;-41
2021/10/11 12:27:31;;;;;;;3.95;3.50;;;;;;;;;;5024641;28;20187;-41
2021/10/11 12:30:01;;;;;;;3.63;3.33;;;;;;;;;;5017513;28;20184;-42
2021/10/11 12:32:32;;;;;;;2.97;2.78;;;;;;;;;;5028323;28;20214;-42
2021/10/11 12:35:00;;;;;;;3.90;3.50;;;;;;;;;;5030126;28;20223;-41
2021/10/11 12:37:34;;;;;;;3.97;3.50;;;;;;;;;;5016407;28;20173;-41
2021/10/11 12:40:00;;;;;;;3.42;3.08;;;;;;;;;;5016631;28;20182;-41
2021/10/11 12:42:27;;;;;;;3.40;3.10;;;;;;;;;;5016526;28;20180;-41
2021/10/11 12:44:56;;;;;;;3.17;2.88;;;;;;;;;;5015339;28;20200;-42
2021/10/11 12:47:33;;;;;;;3.20;2.90;;;;;;;;;;5023808;28;20216;-42
2021/10/11 12:50:00;;;;;;;3.15;2.90;;;;;;;;;;5015992;28;20188;-42
2021/10/11 12:52:32;;;;;;;3.33;3.03;;;;;;;;;;5023396;28;20211;-42
2021/10/11 12:55:25;;;;;;;3.17;2.88;;;;;;;;;;5019016;28;20484;-41
2021/10/11 12:58:02;;;;;;;3.42;3.08;;;;;;;;;;5034019;28;20199;-41
2021/10/11 13:00:28;;;;;;;3.50;3.00;;;;;;;;;;5035762;28;20183;-41
2021/10/11 13:02:55;;;;;;;3.42;3.13;;;;;;;;;;5021589;28;20203;-41
2021/10/11 13:05:21;;;;;;;3.17;2.85;;;;;;;;;;5034024;28;20606;-41
2021/10/11 13:07:47;;;;;;;3.17;2.88;;;;;;;;;;5032566;28;20179;-41
2021/10/11 13:10:13;;;;;;;3.35;2.90;;;;;;;;;;5035557;28;20179;-42
2021/10/11 13:12:40;;;;;;;5.50;3.22;;;;;;;;;;5030769;28;20185;-41
2021/10/11 13:15:06;;;;;;;5.97;3.45;;;;;;;;;;5015163;28;20197;-41
2021/10/11 13:17:32;;;;;;;29.80;13.95;;;;;;;;;;5034567;28;20184;-41
2021/10/11 13:19:58;;;;;;;34.95;14.55;;;;;;;;;;5019512;28;20183;-41
2021/10/11 13:22:25;;;;;;;36.60;14.30;;;;;;;;;;5028108;28;20525;-42
2021/10/11 13:24:51;;;;;;;24.20;13.25;;;;;;;;;;5033424;28;20610;-42
2021/10/11 13:27:17;;;;;;;26.20;11.95;;;;;;;;;;5026010;28;20577;-41
2021/10/11 14:26:21;;;;;;;13.07;7.80;;;;;;;;;;5014925;28;20202;-41
2021/10/11 14:28:56;;;;;;;16.48;8.57;;;;;;;;;;5015083;28;20214;-42
2021/10/11 14:31:27;;;;;;;13.40;7.43;;;;;;;;;;5015967;28;20206;-42
2021/10/11 15:59:05;;;;;;;7.80;5.47;;;;;;;;;;5017529;28;20183;-42
2021/10/11 16:01:43;;;;;;;7.75;5.30;;;;;;;;;;5017271;28;20524;-42
2021/10/11 16:04:10;;;;;;;9.55;5.50;;;;;;;;;;5029213;28;20180;-42
2021/10/11 16:06:36;;;;;;;8.43;5.22;;;;;;;;;;5036492;28;20267;-42
2021/10/11 16:09:03;;;;;;;7.68;4.72;;;;;;;;;;5021975;28;20184;-42
2021/10/11 16:11:29;;;;;;;8.63;5.20;;;;;;;;;;5031077;28;20176;-42
2021/10/11 16:13:55;;;;;;;6.75;4.95;;;;;;;;;;5016818;28;20202;-42
2021/10/11 16:16:21;;;;;;;7.68;5.00;;;;;;;;;;5016827;28;20219;-42
2021/10/11 16:18:47;;;;;;;8.45;4.93;;;;;;;;;;5017938;28;20173;-41
2021/10/11 16:21:13;;;;;;;8.18;4.65;;;;;;;;;;5026064;28;20191;-42
2021/10/11 16:23:40;;;;;;;6.68;4.75;;;;;;;;;;5018407;28;20184;-42
2021/10/11 16:26:08;;;;;;;9.38;5.78;;;;;;;;;;5026499;28;20199;-42
2021/10/11 16:28:36;;;;;;;8.63;5.05;;;;;;;;;;5036871;28;20168;-42
2021/10/11 16:31:03;;;;;;;9.55;5.60;;;;;;;;;;5035721;28;20203;-42
2021/10/11 16:33:29;;;;;;;7.38;4.78;;;;;;;;;;5029689;28;20175;-42
2021/10/11 16:35:55;;;;;;;9.15;4.55;;;;;;;;;;5026658;28;20204;-41
2021/10/11 16:38:21;;;;;;;7.68;4.35;;;;;;;;;;5016592;28;20184;-42
2021/10/11 16:40:47;;;;;;;6.72;4.40;;;;;;;;;;5032974;28;20257;-42
2021/10/11 16:43:13;;;;;;;6.30;4.30;;;;;;;;;;5035058;28;20230;-42
2021/10/11 16:45:39;;;;;;;5.78;4.40;;;;;;;;;;5033416;28;20187;-41
2021/10/11 16:48:06;;;;;;;7.68;4.90;;;;;;;;;;5016531;28;20187;-42
2021/10/11 16:50:32;;;;;;;5.18;4.38;;;;;;;;;;5023565;28;20184;-42
2021/10/11 16:52:58;;;;;;;7.05;4.78;;;;;;;;;;5017853;28;20441;-41
2021/10/11 16:55:24;;;;;;;6.25;4.03;;;;;;;;;;5026989;28;20250;-41
2021/10/11 16:57:50;;;;;;;4.85;3.92;;;;;;;;;;5016198;28;20188;-42
2021/10/11 17:00:16;;;;;;;6.68;4.28;;;;;;;;;;5020513;28;20183;-42
2021/10/11 17:02:43;;;;;;;5.05;4.15;;;;;;;;;;5019982;28;20180;-42
2021/10/11 17:05:13;;;;;;;6.25;4.13;;;;;;;;;;5015791;28;20216;-42
2021/10/11 17:07:40;;;;;;;6.57;4.22;;;;;;;;;;5024020;28;20259;-42
2021/10/11 17:10:06;;;;;;;5.75;4.15;;;;;;;;;;5015943;28;20172;-42